M I D A S
Marine Information and Data Acquisition System
Tripno 767 of the Zeeleeuw from 2004-08-25 06:24:38 to 2004-08-25 13:28:47
Back to CruiseResearch ActivitiesStationsMapUnderway DataData graphs

EquipmentUnitsComment
TimeDGPSUTC
LatitudeDGPSDM.mWGS84
LongitudeDGPSDM.mWGS84
TemperatureSBE03/SBE38deg celciusITS90
ConductivitySBE21S/mITS90
SalinitySBE21 Practical Salinity Units
ChlorophylAChelsea fluorimeterg/lCalibrated in Aceton
Missing or incorrect values are displayed as -999
Sea surface data collected by the RV Zeeleeuw from 2004-08-25 06:24:38 to 2004-08-25 13:28:47
Time Latitude Longitude Temperature Conductivity Salinity ChlorophylA
2004-08-25 06:25:41 51°13.595 2°56.114 22.001909 4.653658 32.70419 -0.781249
2004-08-25 06:26:42 51°13.595 2°56.113 22.00305 4.653447 32.704632 -0.814958
2004-08-25 06:27:43 51°13.611 2°56.056 21.983339 4.653131 32.704244 -0.74754
2004-08-25 06:28:43 51°13.618 2°56.042 21.971494 4.65292 32.705738 -0.814958
2004-08-25 06:29:43 51°13.647 2°55.959 22.015086 4.652498 32.705046 -0.781249
2004-08-25 06:30:43 51°13.671 2°55.844 22.029834 4.652287 32.705489 -0.781249
2004-08-25 06:31:42 51°13.67 2°55.761 22.057315 4.65197 32.70405 -0.781249
2004-08-25 06:32:47 51°13.733 2°55.727 22.072565 4.651759 32.707648 -0.814958
2004-08-25 06:33:46 51°13.843 2°55.617 21.960199 4.651443 32.704105 -0.781249
2004-08-25 06:34:46 51°13.985 2°55.515 22.049453 4.651021 32.706569 -0.781249
2004-08-25 06:35:46 51°14.136 2°55.409 22.041787 4.65081 32.70596 -0.781249
2004-08-25 06:36:46 51°14.285 2°55.228 22.10164 4.650599 32.706403 -0.781249
2004-08-25 06:37:46 51°14.418 2°54.985 21.996048 4.650283 32.704963 -0.781249
2004-08-25 06:38:47 51°14.585 2°54.761 22.055507 4.649966 32.704576 -0.781249
2004-08-25 06:39:46 51°14.76 2°54.552 22.068674 4.649755 32.705545 -0.781249
2004-08-25 06:40:46 51°14.942 2°54.347 22.067495 4.649333 32.703801 -0.814958
2004-08-25 06:41:47 51°15.133 2°54.148 22.036794 4.649439 32.707263 -0.814958
2004-08-25 06:42:46 51°15.323 2°53.963 22.067888 4.649017 32.705519 -0.781249
2004-08-25 06:43:47 51°15.523 2°53.781 22.053738 4.648489 32.702943 -0.814958
2004-08-25 06:44:45 51°15.713 2°53.608 22.039467 4.648595 32.704827 -0.814958
2004-08-25 06:45:46 51°15.924 2°53.455 22.052519 4.648384 32.70527 -0.814958
2004-08-25 06:46:47 51°16.135 2°53.303 22.055507 4.648384 32.70685 -0.781249
2004-08-25 06:47:46 51°16.346 2°53.178 22.081328 4.648173 32.70782 -0.781249
2004-08-25 06:48:47 51°16.563 2°53.045 22.079874 4.647857 32.706907 -0.814958
2004-08-25 06:49:46 51°16.77 2°52.911 22.085965 4.647646 32.706824 -0.781249
2004-08-25 06:50:45 51°16.975 2°52.777 22.076966 4.647435 32.706215 -0.781249
2004-08-25 06:51:45 51°17.187 2°52.641 22.085886 4.646802 32.703334 -0.781249
2004-08-25 06:52:46 51°17.393 2°52.48 22.106983 4.647329 32.709071 -0.74754
2004-08-25 06:53:45 51°17.541 2°52.24 22.134395 4.646907 32.707852 -0.781249
2004-08-25 06:54:47 51°17.665 2°51.943 22.105686 4.64638 32.705803 -0.781249
2004-08-25 06:55:46 51°17.787 2°51.659 22.114524 4.646802 32.710709 -0.74754
2004-08-25 06:56:46 51°17.91 2°51.367 22.12395 4.645747 32.705029 -0.781249
2004-08-25 06:57:45 51°18.034 2°51.085 22.117116 4.645747 32.706082 -0.781249
2004-08-25 06:58:47 51°18.165 2°50.788 22.125678 4.646064 32.709104 -0.781249
2004-08-25 06:59:46 51°18.286 2°50.504 22.133413 4.645747 32.707663 -0.781249
2004-08-25 07:00:47 51°18.405 2°50.204 22.140088 4.645431 32.707803 -0.781249
2004-08-25 07:01:46 51°18.519 2°49.914 22.166782 4.645009 32.706058 -0.781249
2004-08-25 07:02:46 51°18.632 2°49.618 22.161208 4.645431 32.711492 -0.781249
2004-08-25 07:03:50 51°18.754 2°49.306 22.176789 4.64427 32.704452 -0.781249
2004-08-25 07:04:50 51°18.871 2°49.014 22.180242 4.644376 32.707392 -0.781249
2004-08-25 07:05:50 51°18.989 2°48.724 22.187227 4.644481 32.709278 -0.781249
2004-08-25 07:06:57 51°19.11 2°48.395 22.194603 4.64427 32.708669 -0.781249
2004-08-25 07:07:58 51°19.204 2°48.085 22.202213 4.644376 32.71161 -0.781249
2004-08-25 07:09:01 51°19.303 2°47.763 22.222648 4.643427 32.707287 -0.814958
2004-08-25 07:10:00 51°19.395 2°47.462 22.215824 4.643638 32.710533 -0.781249
2004-08-25 07:11:01 51°19.471 2°47.141 22.232373 4.643216 32.707732 -0.781249
2004-08-25 07:12:09 51°19.548 2°46.776 22.243587 4.643005 32.70765 -0.74754
2004-08-25 07:13:08 51°19.619 2°46.465 22.256915 4.642688 32.708318 -0.814958
2004-08-25 07:14:09 51°19.686 2°46.141 22.267498 4.642899 32.709982 -0.814958
2004-08-25 07:15:08 51°19.754 2°45.831 22.275218 4.642477 32.709291 -0.74754
2004-08-25 07:16:09 51°19.812 2°45.511 22.278549 4.64195 32.706186 -0.814958
2004-08-25 07:17:06 51°19.864 2°45.209 22.301705 4.641633 32.706854 -0.781249
2004-08-25 07:18:08 51°19.903 2°44.874 22.306562 4.64195 32.709878 -0.814958
2004-08-25 07:19:14 51°19.942 2°44.516 22.327476 4.641422 32.707827 -0.781249
2004-08-25 07:20:15 51°19.98 2°44.183 22.344117 4.640895 32.705249 -0.814958
2004-08-25 07:21:25 51°20.022 2°43.802 22.340241 4.641423 32.710993 -0.781249
2004-08-25 07:22:25 51°20.058 2°43.473 22.357544 4.640579 32.705918 -0.781249
2004-08-25 07:23:25 51°20.094 2°43.147 22.364707 4.640895 32.70947 -0.781249
2004-08-25 07:24:25 51°20.13 2°42.824 22.369482 4.640895 32.711581 -0.814958
2004-08-25 07:25:25 51°20.167 2°42.499 22.382161 4.639946 32.706728 -0.814958
2004-08-25 07:26:26 51°20.204 2°42.169 22.385996 4.640579 32.712251 -0.781249
2004-08-25 07:27:26 51°20.239 2°41.845 22.392803 4.640262 32.710809 -0.781249
2004-08-25 07:28:25 51°20.275 2°41.533 22.411619 4.639524 32.707093 -0.781249
2004-08-25 07:29:26 51°20.313 2°41.209 22.418464 4.639207 32.705651 -0.781249
2004-08-25 07:30:26 51°20.35 2°40.887 22.438564 4.639629 32.711621 -0.781249
2004-08-25 07:31:26 51°20.388 2°40.565 22.458814 4.639102 32.708513 -0.781249
2004-08-25 07:32:25 51°20.425 2°40.249 22.471516 4.638785 32.707071 -0.781249
2004-08-25 07:33:25 51°20.462 2°39.923 22.473822 4.638258 32.705019 -0.781249
2004-08-25 07:34:25 51°20.499 2°39.598 22.477886 4.638786 32.709711 -0.781249
2004-08-25 07:35:34 51°20.538 2°39.223 22.490077 4.637836 32.704856 -0.781249
2004-08-25 07:36:33 51°20.574 2°38.9 22.505626 4.638047 32.70705 -0.781249
2004-08-25 07:37:34 51°20.61 2°38.569 22.518788 4.637625 32.705831 -0.781249
2004-08-25 07:38:33 51°20.641 2°38.245 22.525505 4.637942 32.709914 -0.814958
2004-08-25 07:39:34 51°20.677 2°37.915 22.541085 4.63752 32.708167 -0.781249
2004-08-25 07:40:37 51°20.714 2°37.573 22.550026 4.636992 32.705059 -0.781249
2004-08-25 07:41:37 51°20.749 2°37.246 22.568371 4.637098 32.706948 -0.781249
2004-08-25 07:42:37 51°20.784 2°36.92 22.580313 4.637098 32.708005 -0.74754
2004-08-25 07:43:37 51°20.821 2°36.597 22.590692 4.636992 32.708757 -0.814958
2004-08-25 07:44:37 51°20.859 2°36.273 22.61047 4.636887 32.70898 -0.781249
2004-08-25 07:45:42 51°20.899 2°35.924 22.627591 4.636359 32.705871 -0.74754
2004-08-25 07:46:42 51°20.939 2°35.598 22.621507 4.636676 32.708899 -0.814958
2004-08-25 07:47:42 51°20.982 2°35.275 22.64541 4.636149 32.706318 -0.781249
2004-08-25 07:48:46 51°21.028 2°34.931 22.654064 4.636254 32.708208 -0.781249
2004-08-25 07:49:45 51°21.07 2°34.616 22.664394 4.636465 32.710403 -0.814958
2004-08-25 07:50:46 51°21.109 2°34.294 22.68836 4.635938 32.706237 -0.814958
2004-08-25 07:51:45 51°21.148 2°33.975 22.686217 4.636254 32.709794 -0.781249
2004-08-25 07:52:46 51°21.211 2°33.656 22.689918 4.635621 32.70638 -0.781249
2004-08-25 07:53:46 51°21.376 2°33.434 22.713097 4.63541 32.70577 -0.781249
2004-08-25 07:54:46 51°21.599 2°33.355 22.732841 4.635199 32.705689 -0.74754
2004-08-25 07:55:46 51°21.825 2°33.276 22.753009 4.635094 32.705912 -0.814958
2004-08-25 07:56:46 51°22.051 2°33.203 22.767917 4.634777 32.705527 -0.781249
2004-08-25 07:57:47 51°22.23 2°32.997 22.775194 4.634672 32.704693 -0.781249
2004-08-25 07:58:45 51°22.345 2°32.726 22.778502 4.634566 32.70386 -0.814958
2004-08-25 07:59:46 51°22.39 2°32.399 22.781576 4.635305 32.712337 -0.781249
2004-08-25 08:00:47 51°22.412 2°32.069 22.804336 4.635199 32.715205 -0.781249
2004-08-25 08:01:53 51°22.423 2°31.716 22.812855 4.634566 32.71179 -0.781249
2004-08-25 08:02:53 51°22.437 2°31.394 22.8281 4.634461 32.713071 -0.814958
2004-08-25 08:03:54 51°22.453 2°31.066 22.84723 4.633723 32.708823 -0.814958
2004-08-25 08:04:53 51°22.464 2°30.751 22.856132 4.633406 32.708437 -0.814958
2004-08-25 08:05:53 51°22.473 2°30.429 22.863906 4.633195 32.708356 -0.814958
2004-08-25 08:06:53 51°22.486 2°30.109 22.878791 4.632668 32.705774 -0.781249
2004-08-25 08:07:57 51°22.5 2°29.769 22.905094 4.631929 32.70364 -0.781249
2004-08-25 08:08:57 51°22.511 2°29.442 22.917174 4.632035 32.70659 -0.814958
2004-08-25 08:10:03 51°22.527 2°29.089 22.924825 4.631402 32.703173 -0.74754
2004-08-25 08:11:03 51°22.539 2°28.765 22.935465 4.631508 32.707711 -0.814958
2004-08-25 08:12:03 51°22.551 2°28.44 22.944667 4.631402 32.707935 -0.814958
2004-08-25 08:13:01 51°22.573 2°28.123 22.955925 4.631086 32.708608 -0.74754
2004-08-25 08:14:11 51°22.599 2°27.741 22.973352 4.630664 32.708976 -0.814958
2004-08-25 08:15:11 51°22.621 2°27.412 22.983286 4.630664 32.710564 -0.781249
2004-08-25 08:16:17 51°22.645 2°27.048 23.002142 4.629503 32.704034 -0.781249
2004-08-25 08:17:23 51°22.67 2°26.689 23.018123 4.62887 32.702734 -0.781249
2004-08-25 08:18:23 51°22.698 2°26.366 23.005672 4.629292 32.705542 -0.781249
2004-08-25 08:19:29 51°22.802 2°26.031 23.030727 4.628871 32.70591 -0.781249
2004-08-25 08:20:29 51°22.917 2°25.75 23.034139 4.628449 32.704161 -0.781249
2004-08-25 08:21:29 51°23.129 2°25.62 23.051509 4.627921 32.702636 -0.814958
2004-08-25 08:22:29 51°23.37 2°25.635 23.079105 4.627499 32.703005 -0.781249
2004-08-25 08:23:29 51°23.614 2°25.66 23.108783 4.627394 32.705878 -0.781249
2004-08-25 08:24:33 51°23.871 2°25.694 23.10398 4.626866 32.700116 -0.781249
2004-08-25 08:25:33 51°24.112 2°25.718 23.125166 4.626761 32.701399 -0.781249
2004-08-25 08:26:34 51°24.356 2°25.751 23.124469 4.62655 32.702378 -0.814958
2004-08-25 08:27:33 51°24.593 2°25.769 23.144643 4.626128 32.702218 -0.781249
2004-08-25 08:28:39 51°24.858 2°25.8 23.148128 4.625917 32.702137 -0.814958
2004-08-25 08:29:39 51°25.099 2°25.819 23.179712 4.625284 32.698188 -0.814958
2004-08-25 08:30:38 51°25.338 2°25.847 23.163225 4.624757 32.694543 -0.781249
2004-08-25 08:31:37 51°25.575 2°25.884 23.197936 4.625073 32.698108 -0.814958
2004-08-25 08:32:38 51°25.822 2°25.917 23.200102 4.624546 32.694463 -0.814958
2004-08-25 08:33:41 51°26.072 2°25.968 23.204977 4.624862 32.699087 -0.814958
2004-08-25 08:34:41 51°26.311 2°26.023 23.227565 4.624757 32.701431 -0.781249
2004-08-25 08:35:43 51°26.558 2°26.073 23.228261 4.624229 32.698316 -0.781249
2004-08-25 08:36:43 51°26.799 2°26.126 23.269357 4.624546 32.703471 -0.781249
2004-08-25 08:37:41 51°27.031 2°26.198 23.281105 4.624124 32.701191 -0.781249
2004-08-25 08:38:41 51°27.273 2°26.269 23.240248 4.623386 32.695345 -0.781249
2004-08-25 08:39:41 51°27.515 2°26.346 23.29374 4.623597 32.699135 -0.781249
2004-08-25 08:40:44 51°27.767 2°26.426 23.284931 4.623491 32.69989 -0.781249
2004-08-25 08:41:41 51°27.993 2°26.492 23.30139 4.623491 32.701481 -0.781249
2004-08-25 08:42:41 51°28.234 2°26.567 23.334683 4.623386 32.702236 -0.74754
2004-08-25 08:43:43 51°28.482 2°26.641 23.337695 4.623386 32.701706 -0.781249
2004-08-25 08:44:50 51°28.695 2°26.704 23.353872 4.622858 32.70018 -0.781249
2004-08-25 08:45:51 51°28.775 2°26.716 23.360589 4.623175 32.703747 -0.781249
2004-08-25 08:46:48 51°28.804 2°26.742 23.367691 4.623069 32.705563 -0.74754
2004-08-25 08:47:51 51°28.818 2°26.775 23.385212 4.622225 32.69941 -0.781249
2004-08-25 08:48:51 51°28.839 2°26.81 23.388415 4.622436 32.702141 -0.781249
2004-08-25 08:49:49 51°28.864 2°26.844 23.400568 4.622014 32.6988 -0.74754
2004-08-25 08:50:50 51°28.891 2°26.879 23.414957 4.622331 32.702367 -0.814958
2004-08-25 08:51:53 51°28.919 2°26.913 23.421938 4.62212 32.700165 -0.781249
2004-08-25 08:52:53 51°28.946 2°26.946 23.448737 4.62212 32.701226 -0.781249
2004-08-25 08:53:58 51°28.979 2°26.982 23.462114 4.622331 32.702367 -0.781249
2004-08-25 08:54:59 51°29.142 2°27.033 23.466624 4.62212 32.701226 -0.781249
2004-08-25 08:55:59 51°29.38 2°27.064 23.432235 4.622436 32.702141 -0.814958
2004-08-25 08:57:04 51°29.642 2°27.073 23.483851 4.622436 32.702672 -0.814958
2004-08-25 08:58:03 51°29.876 2°27.074 23.474988 4.622225 32.701531 -0.814958
2004-08-25 08:59:02 51°30.112 2°27.079 23.51968 4.622436 32.704793 -0.74754
2004-08-25 09:00:03 51°30.357 2°27.086 23.508625 4.622542 32.701386 -0.781249
2004-08-25 09:01:09 51°30.621 2°27.099 23.482387 4.621698 32.695233 -0.814958
2004-08-25 09:02:09 51°30.862 2°27.099 23.543632 4.622647 32.704873 -0.781249
2004-08-25 09:03:09 51°31.101 2°27.115 23.51837 4.622225 32.698349 -0.781249
2004-08-25 09:04:09 51°31.341 2°27.125 23.549292 4.622647 32.704343 -0.781249
2004-08-25 09:05:09 51°31.58 2°27.144 23.569194 4.622436 32.705854 -0.781249
2004-08-25 09:06:10 51°31.827 2°27.171 23.565345 4.622225 32.705244 -0.74754
2004-08-25 09:07:09 51°32.063 2°27.199 23.599171 4.622964 32.713216 -0.781249
2004-08-25 09:08:11 51°32.31 2°27.232 23.605518 4.622331 32.704488 -0.781249
2004-08-25 09:09:14 51°32.563 2°27.26 23.610096 4.62212 32.704939 -0.814958
2004-08-25 09:10:13 51°32.796 2°27.315 23.608173 4.622542 32.707751 -0.781249
2004-08-25 09:11:13 51°33.03 2°27.401 23.626135 4.622542 32.708281 -0.781249
2004-08-25 09:12:14 51°33.267 2°27.515 23.629058 4.62212 32.706 -0.781249
2004-08-25 09:13:14 51°33.499 2°27.629 23.662393 4.622226 32.708958 -0.814958
2004-08-25 09:14:14 51°33.727 2°27.752 23.63798 4.621698 32.703188 -0.74754
2004-08-25 09:15:14 51°33.955 2°27.871 23.683647 4.622226 32.708958 -0.814958
2004-08-25 09:16:22 51°34.211 2°28.014 23.663431 4.621804 32.702963 -0.781249
2004-08-25 09:17:24 51°34.45 2°28.139 23.694176 4.622226 32.710019 -0.781249
2004-08-25 09:18:21 51°34.671 2°28.257 23.711886 4.62212 32.710775 -0.781249
2004-08-25 09:19:29 51°34.932 2°28.396 23.718762 4.622015 32.71047 -0.814958
2004-08-25 09:20:29 51°35.16 2°28.532 23.704818 4.621698 32.706371 -0.781249
2004-08-25 09:21:29 51°35.382 2°28.687 23.74549 4.621909 32.710165 -0.781249
2004-08-25 09:22:29 51°35.602 2°28.851 23.748178 4.621804 32.70986 -0.814958
2004-08-25 09:23:27 51°35.803 2°29.04 23.764724 4.621804 32.710391 -0.781249
2004-08-25 09:24:29 51°36.024 2°29.238 23.773091 4.621909 32.710696 -0.781249
2004-08-25 09:25:29 51°36.225 2°29.454 23.780076 4.621698 32.710617 -0.781249
2004-08-25 09:26:28 51°36.419 2°29.674 23.789938 4.621382 32.70864 -0.781249
2004-08-25 09:27:28 51°36.629 2°29.882 23.808546 4.621909 32.714412 -0.781249
2004-08-25 09:28:33 51°36.847 2°30.117 23.805132 4.621593 32.711373 -0.814958
2004-08-25 09:29:39 51°37.073 2°30.351 23.810273 4.621593 32.710843 -0.814958
2004-08-25 09:30:39 51°37.278 2°30.566 23.851844 4.621487 32.711599 -0.814958
2004-08-25 09:31:42 51°37.494 2°30.785 23.832711 4.621698 32.713802 -0.781249
2004-08-25 09:32:48 51°37.718 2°31.014 23.879903 4.621382 32.711825 -0.814958
2004-08-25 09:33:49 51°37.923 2°31.237 23.86139 4.621593 32.711904 -0.814958
2004-08-25 09:34:49 51°38.119 2°31.462 23.874154 4.621698 32.712209 -0.814958
2004-08-25 09:35:49 51°38.312 2°31.689 23.898986 4.621593 32.713497 -0.781249
2004-08-25 09:36:53 51°38.519 2°31.928 23.905614 4.621065 32.709317 -0.814958
2004-08-25 09:37:59 51°38.731 2°32.182 23.92649 4.621382 32.711825 -0.781249
2004-08-25 09:38:58 51°38.928 2°32.402 23.897377 4.621698 32.713271 -0.781249
2004-08-25 09:39:59 51°39.131 2°32.628 23.904197 4.621593 32.712435 -0.781249
2004-08-25 09:40:57 51°39.322 2°32.851 23.921435 4.621593 32.714559 -0.814958
2004-08-25 09:42:01 51°39.53 2°33.107 23.925648 4.621382 32.712887 -0.781249
2004-08-25 09:43:02 51°39.727 2°33.348 23.951572 4.621698 32.716456 -0.781249
2004-08-25 09:44:03 51°39.925 2°33.585 23.970981 4.621382 32.716603 -0.814958
2004-08-25 09:45:09 51°40.142 2°33.844 23.961718 4.621382 32.714479 -0.814958
2004-08-25 09:46:06 51°40.331 2°34.068 23.976569 4.621804 32.718885 -0.781249
2004-08-25 09:47:18 51°40.571 2°34.345 24.012881 4.621593 32.718806 -0.814958
2004-08-25 09:48:19 51°40.773 2°34.584 24.00588 4.620749 32.712118 -0.781249
2004-08-25 09:49:24 51°40.988 2°34.839 23.977794 4.621382 32.717134 -0.814958
2004-08-25 09:50:22 51°41.177 2°35.064 24.037589 4.621171 32.717056 -0.814958
2004-08-25 09:51:29 51°41.393 2°35.326 24.047455 4.621171 32.718118 -0.781249
2004-08-25 09:52:30 51°41.591 2°35.558 24.022444 4.621382 32.718197 -0.781249
2004-08-25 09:53:33 51°41.799 2°35.808 24.043822 4.621065 32.719406 -0.814958
2004-08-25 09:54:38 51°42.009 2°36.064 24.05858 4.62096 32.718039 -0.814958
2004-08-25 09:55:44 51°42.219 2°36.325 24.091527 4.620538 32.71735 -0.814958
2004-08-25 09:56:41 51°42.403 2°36.547 24.087477 4.620644 32.716593 -0.814958
2004-08-25 09:57:49 51°42.621 2°36.809 24.078457 4.620855 32.718796 -0.814958
2004-08-25 09:58:54 51°42.816 2°37.091 24.064009 4.620855 32.719327 -0.814958
2004-08-25 09:59:54 51°42.875 2°37.45 24.112044 4.620644 32.71978 -0.814958
2004-08-25 10:00:54 51°42.793 2°37.786 24.120105 4.620644 32.721374 -0.814958
2004-08-25 10:01:54 51°42.676 2°38.095 24.111128 4.620433 32.717045 -0.781249
2004-08-25 10:02:54 51°42.554 2°38.398 24.13733 4.619905 32.714989 -0.74754
2004-08-25 10:03:54 51°42.434 2°38.701 24.136069 4.620222 32.71856 -0.814958
2004-08-25 10:04:53 51°42.317 2°39.001 24.151496 4.620011 32.716356 -0.814958
2004-08-25 10:05:54 51°42.197 2°39.309 24.141454 4.620116 32.717193 -0.781249
2004-08-25 10:06:54 51°42.078 2°39.611 24.186729 4.620222 32.719091 -0.814958
2004-08-25 10:07:54 51°41.957 2°39.909 24.189972 4.619905 32.719239 -0.814958
2004-08-25 10:08:54 51°41.836 2°40.211 24.191537 4.6198 32.716809 -0.848668
2004-08-25 10:09:54 51°41.714 2°40.515 24.21092 4.620116 32.72038 -0.781249
2004-08-25 10:10:54 51°41.589 2°40.816 24.213476 4.620011 32.719544 -0.781249
2004-08-25 10:11:54 51°41.472 2°41.124 24.217443 4.620011 32.721138 -0.814958
2004-08-25 10:12:54 51°41.354 2°41.43 24.235064 4.620011 32.72167 -0.781249
2004-08-25 10:13:54 51°41.229 2°41.728 24.251843 4.619589 32.718856 -0.74754
2004-08-25 10:14:54 51°41.103 2°42.028 24.250928 4.619905 32.721365 -0.74754
2004-08-25 10:15:54 51°40.983 2°42.334 24.251462 4.619905 32.71977 -0.781249
2004-08-25 10:16:54 51°40.859 2°42.638 24.283216 4.619694 32.721818 -0.781249
2004-08-25 10:17:54 51°40.739 2°42.94 24.288589 4.619589 32.718856 -0.781249
2004-08-25 10:18:54 51°40.617 2°43.243 24.302993 4.619905 32.722959 -0.814958
2004-08-25 10:19:54 51°40.491 2°43.543 24.300554 4.619694 32.719692 -0.814958
2004-08-25 10:20:53 51°40.373 2°43.841 24.310537 4.620222 32.723874 -0.781249
2004-08-25 10:21:54 51°40.247 2°44.148 24.305012 4.619905 32.720833 -0.781249
2004-08-25 10:22:53 51°40.102 2°44.402 24.344931 4.619905 32.722959 -0.781249
2004-08-25 10:23:53 51°39.926 2°44.615 24.346035 4.619483 32.720145 -0.74754
2004-08-25 10:24:54 51°39.744 2°44.816 24.330687 4.619905 32.721365 -0.781249
2004-08-25 10:25:54 51°39.538 2°44.897 24.362597 4.620433 32.72661 -0.781249
2004-08-25 10:26:54 51°39.327 2°44.932 24.362597 4.620011 32.723264 -0.814958
2004-08-25 10:27:54 51°39.12 2°44.908 24.395102 4.6198 32.72106 -0.814958
2004-08-25 10:28:54 51°38.911 2°44.885 24.387301 4.619589 32.719387 -0.781249
2004-08-25 10:29:54 51°38.708 2°44.807 24.389546 4.620433 32.725547 -0.781249
2004-08-25 10:30:54 51°38.517 2°44.679 24.398222 4.620433 32.725015 -0.814958
2004-08-25 10:31:54 51°38.354 2°44.477 24.432118 4.620011 32.723795 -0.74754
2004-08-25 10:32:54 51°38.222 2°44.222 24.430863 4.619167 32.71923 -0.781249
2004-08-25 10:33:54 51°38.139 2°43.921 24.446836 4.619483 32.721739 -0.814958
2004-08-25 10:34:54 51°38.157 2°43.577 24.454061 4.6198 32.72478 -0.814958
2004-08-25 10:35:53 51°38.161 2°43.236 24.452654 4.619905 32.727212 -0.781249
2004-08-25 10:36:53 51°38.153 2°42.891 24.456418 4.620011 32.72858 -0.814958
2004-08-25 10:37:54 51°38.143 2°42.542 24.462159 4.619905 32.727212 -0.814958
2004-08-25 10:38:58 51°38.13 2°42.175 24.484966 4.6198 32.728502 -0.781249
2004-08-25 10:39:59 51°38.117 2°41.823 24.486372 4.619589 32.727892 -0.781249
2004-08-25 10:40:58 51°38.103 2°41.487 24.500775 4.618956 32.723404 -0.814958
2004-08-25 10:41:57 51°38.091 2°41.147 24.500205 4.619273 32.727509 -0.781249
2004-08-25 10:42:57 51°38.06 2°40.808 24.522355 4.618534 32.723779 -0.781249
2004-08-25 10:43:58 51°37.973 2°40.496 24.512895 4.618429 32.723474 -0.74754
2004-08-25 10:44:58 51°37.841 2°40.235 24.546738 4.61864 32.726211 -0.814958
2004-08-25 10:45:57 51°37.672 2°40.057 24.528052 4.618112 32.722027 -0.781249
2004-08-25 10:46:57 51°37.478 2°39.938 24.547611 4.618112 32.722559 -0.814958
2004-08-25 10:47:57 51°37.283 2°39.816 24.543168 4.618112 32.724155 -0.781249
2004-08-25 10:48:57 51°37.089 2°39.699 24.55718 4.618534 32.72697 -0.781249
2004-08-25 10:49:58 51°36.892 2°39.577 24.571075 4.618112 32.724155 -0.781249
2004-08-25 10:50:58 51°36.696 2°39.459 24.580489 4.61769 32.719744 -0.781249
2004-08-25 10:51:58 51°36.499 2°39.35 24.585082 4.618534 32.725374 -0.781249
2004-08-25 10:52:58 51°36.302 2°39.234 24.609027 4.618429 32.725069 -0.814958
2004-08-25 10:54:00 51°36.095 2°39.118 24.598023 4.618429 32.724006 -0.814958
2004-08-25 10:55:00 51°35.894 2°39.008 24.614452 4.618323 32.723701 -0.781249
2004-08-25 10:56:00 51°35.692 2°38.918 24.612441 4.61864 32.724084 -0.781249
2004-08-25 10:56:57 51°35.5 2°38.828 24.638312 4.618745 32.724389 -0.781249
2004-08-25 10:57:58 51°35.292 2°38.742 24.638046 4.618323 32.721042 -0.814958
2004-08-25 10:58:58 51°35.086 2°38.668 24.638691 4.618745 32.723857 -0.781249
2004-08-25 11:00:00 51°34.875 2°38.596 24.644683 4.619378 32.727282 -0.814958
2004-08-25 11:01:03 51°34.659 2°38.674 24.679791 4.619273 32.725914 -0.781249
2004-08-25 11:02:03 51°34.486 2°38.884 24.656097 4.619378 32.725687 -0.814958
2004-08-25 11:03:02 51°34.326 2°39.12 24.659358 4.619694 32.727133 -0.781249
2004-08-25 11:04:07 51°34.151 2°39.376 24.70128 4.6198 32.727438 -0.781249
2004-08-25 11:05:07 51°33.986 2°39.609 24.693473 4.620222 32.730253 -0.781249
2004-08-25 11:06:06 51°33.822 2°39.83 24.735717 4.6198 32.725843 -0.781249
2004-08-25 11:07:06 51°33.656 2°40.069 24.69192 4.620433 32.728204 -0.781249
2004-08-25 11:08:05 51°33.458 2°40.202 24.705865 4.620749 32.729651 -0.814958
2004-08-25 11:09:06 51°33.242 2°40.22 24.718822 4.62096 32.730792 -0.781249
2004-08-25 11:10:05 51°33.033 2°40.16 24.751169 4.620855 32.729424 -0.781249
2004-08-25 11:11:06 51°32.816 2°40.103 24.749654 4.621066 32.729502 -0.781249
2004-08-25 11:12:07 51°32.601 2°40.044 24.749654 4.621699 32.733457 -0.781249
2004-08-25 11:13:05 51°32.396 2°39.983 24.772144 4.622015 32.735435 -0.781249
2004-08-25 11:14:12 51°32.159 2°39.913 24.775173 4.62191 32.733535 -0.781249
2004-08-25 11:15:16 51°31.933 2°39.847 24.772901 4.622226 32.733918 -0.781249
2004-08-25 11:16:15 51°31.724 2°39.791 24.786528 4.622437 32.735059 -0.814958
2004-08-25 11:17:16 51°31.508 2°39.731 24.815326 4.622859 32.736278 -0.781249
2004-08-25 11:18:16 51°31.295 2°39.673 24.830571 4.622226 32.731792 -0.814958
2004-08-25 11:19:15 51°31.099 2°39.562 24.806661 4.622859 32.734684 -0.781249
2004-08-25 11:20:16 51°30.913 2°39.383 24.831706 4.623281 32.736966 -0.814958
2004-08-25 11:21:15 51°30.764 2°39.147 24.844263 4.62307 32.733699 -0.814958
2004-08-25 11:22:15 51°30.621 2°38.889 24.865968 4.623492 32.735981 -0.814958
2004-08-25 11:23:15 51°30.476 2°38.634 24.868577 4.623703 32.73659 -0.814958
2004-08-25 11:24:17 51°30.325 2°38.373 24.858784 4.624336 32.739482 -0.814958
2004-08-25 11:25:21 51°30.165 2°38.105 24.879767 4.624336 32.739482 -0.781249
2004-08-25 11:26:22 51°30.012 2°37.851 24.873076 4.624863 32.742068 -0.781249
2004-08-25 11:27:22 51°29.86 2°37.601 24.883925 4.624863 32.741005 -0.814958
2004-08-25 11:28:20 51°29.713 2°37.358 24.885928 4.625391 32.743591 -0.781249
2004-08-25 11:29:23 51°29.555 2°37.092 24.896473 4.625391 32.742528 -0.781249
2004-08-25 11:30:23 51°29.405 2°36.839 24.897493 4.626023 32.74595 -0.781249
2004-08-25 11:31:23 51°29.255 2°36.587 24.898325 4.62634 32.746332 -0.781249
2004-08-25 11:32:23 51°29.085 2°36.383 24.938939 4.626656 32.749371 -0.781249
2004-08-25 11:33:27 51°28.863 2°36.273 24.913553 4.626973 32.74816 -0.814958
2004-08-25 11:34:27 51°28.655 2°36.172 24.922394 4.626867 32.747324 -0.781249
2004-08-25 11:35:27 51°28.445 2°36.068 24.928778 4.627184 32.748238 -0.814958
2004-08-25 11:36:26 51°28.237 2°36.038 24.918049 4.627395 32.748315 -0.781249
2004-08-25 11:37:27 51°28.017 2°36.116 24.962277 4.627922 32.751432 -0.814958
2004-08-25 11:38:27 51°27.819 2°36.286 24.94502 4.628133 32.751509 -0.74754
2004-08-25 11:39:33 51°27.611 2°36.505 24.964467 4.628239 32.75022 -0.781249
2004-08-25 11:40:33 51°27.421 2°36.7 24.978927 4.628555 32.751665 -0.814958
2004-08-25 11:41:33 51°27.232 2°36.894 24.982928 4.628977 32.752883 -0.814958
2004-08-25 11:42:32 51°27.046 2°37.08 24.978625 4.628977 32.75129 -0.814958
2004-08-25 11:43:33 51°26.852 2°37.273 25.002969 4.629188 32.751898 -0.781249
2004-08-25 11:44:33 51°26.663 2°37.464 24.998554 4.629715 32.753952 -0.781249
2004-08-25 11:45:33 51°26.498 2°37.696 25.026174 4.629821 32.75585 -0.781249
2004-08-25 11:46:33 51°26.395 2°38.019 25.025306 4.629926 32.753499 -0.781249
2004-08-25 11:47:33 51°26.29 2°38.34 24.988439 4.63077 32.756465 -0.814958
2004-08-25 11:48:32 51°26.191 2°38.658 25.017195 4.631087 32.756316 -0.814958
2004-08-25 11:49:33 51°26.079 2°38.977 24.99093 4.631192 32.755028 -0.781249
2004-08-25 11:50:33 51°25.919 2°39.229 25.018214 4.631614 32.757838 -0.781249
2004-08-25 11:51:32 51°25.718 2°39.369 25.050126 4.631825 32.759509 -0.781249
2004-08-25 11:52:32 51°25.5 2°39.456 25.060307 4.632036 32.757994 -0.74754
2004-08-25 11:53:33 51°25.277 2°39.523 25.082664 4.632458 32.759742 -0.781249
2004-08-25 11:54:33 51°25.058 2°39.584 25.065435 4.632563 32.757392 -0.814958
2004-08-25 11:55:33 51°24.835 2°39.615 25.066717 4.633196 32.76028 -0.74754
2004-08-25 11:56:31 51°24.619 2°39.588 25.096874 4.633091 32.758914 -0.814958
2004-08-25 11:57:31 51°24.394 2°39.568 25.093671 4.633513 32.760131 -0.814958
2004-08-25 11:58:33 51°24.165 2°39.554 25.098043 4.634251 32.764384 -0.781249
2004-08-25 11:59:33 51°23.944 2°39.535 25.113079 4.634568 32.764766 -0.781249
2004-08-25 12:00:33 51°23.721 2°39.517 25.11078 4.634989 32.766513 -0.781249
2004-08-25 12:01:33 51°23.498 2°39.501 25.132595 4.634989 32.764391 -0.781249
2004-08-25 12:02:33 51°23.272 2°39.482 25.120238 4.635095 32.762573 -0.781249
2004-08-25 12:03:33 51°23.047 2°39.458 25.136663 4.635833 32.766824 -0.814958
2004-08-25 12:04:36 51°22.81 2°39.438 25.154176 4.635939 32.766598 -0.781249
2004-08-25 12:05:34 51°22.593 2°39.441 25.172138 4.636361 32.767815 -0.781249
2004-08-25 12:06:36 51°22.361 2°39.482 25.168862 4.636361 32.765693 -0.781249
2004-08-25 12:07:35 51°22.141 2°39.521 25.159147 4.636888 32.767214 -0.781249
2004-08-25 12:08:36 51°21.911 2°39.561 25.18554 4.637099 32.767822 -0.781249
2004-08-25 12:09:44 51°21.656 2°39.604 25.180608 4.637626 32.769873 -0.781249
2004-08-25 12:10:44 51°21.429 2°39.639 25.192729 4.637837 32.769951 -0.814958
2004-08-25 12:11:43 51°21.208 2°39.677 25.194197 4.638048 32.768968 -0.781249
2004-08-25 12:12:44 51°20.987 2°39.756 25.210004 4.638576 32.77208 -0.74754
2004-08-25 12:13:46 51°20.786 2°39.937 25.273759 4.638787 32.772688 -0.781249
2004-08-25 12:14:51 51°20.647 2°40.248 25.226446 4.638998 32.773296 -0.814958
2004-08-25 12:15:50 51°20.549 2°40.56 25.260223 4.639314 32.774738 -0.781249
2004-08-25 12:16:51 51°20.493 2°40.909 25.248753 4.639631 32.776181 -0.781249
2004-08-25 12:17:52 51°20.44 2°41.263 25.253416 4.639842 32.775728 -0.781249
2004-08-25 12:18:52 51°20.383 2°41.602 25.25383 4.639947 32.774441 -0.781249
2004-08-25 12:19:55 51°20.321 2°41.957 25.258756 4.64058 32.777856 -0.781249
2004-08-25 12:20:55 51°20.274 2°42.299 25.246458 4.64058 32.776265 -0.781249
2004-08-25 12:21:55 51°20.243 2°42.649 25.240666 4.640896 32.776647 -0.74754
2004-08-25 12:22:53 51°20.214 2°42.992 25.263833 4.641318 32.778924 -0.781249
2004-08-25 12:23:55 51°20.184 2°43.352 25.301351 4.641424 32.778167 -0.814958
2004-08-25 12:25:07 51°20.146 2°43.774 25.324236 4.641635 32.778245 -0.781249
2004-08-25 12:26:06 51°20.115 2°44.117 25.314429 4.641846 32.777793 -0.781249
2004-08-25 12:27:07 51°20.075 2°44.474 25.31146 4.642268 32.779008 -0.781249
2004-08-25 12:28:09 51°20.038 2°44.832 25.334342 4.642795 32.781058 -0.781249
2004-08-25 12:29:09 51°20.001 2°45.177 25.319051 4.643006 32.780606 -0.814958
2004-08-25 12:30:10 51°19.96 2°45.529 25.322357 4.643112 32.77932 -0.781249
2004-08-25 12:31:08 51°19.927 2°45.856 25.366304 4.643639 32.782429 -0.781249
2004-08-25 12:32:10 51°19.842 2°46.181 25.3838 4.643955 32.783871 -0.781249
2004-08-25 12:33:10 51°19.73 2°46.48 25.35455 4.644272 32.783193 -0.74754
2004-08-25 12:34:10 51°19.616 2°46.783 25.353761 4.644588 32.783045 -0.781249
2004-08-25 12:35:09 51°19.498 2°47.079 25.384363 4.644694 32.782289 -0.814958
2004-08-25 12:36:10 51°19.382 2°47.387 25.345761 4.645327 32.784642 -0.814958
2004-08-25 12:37:09 51°19.265 2°47.683 25.428235 4.645749 32.787976 -0.814958
2004-08-25 12:38:09 51°19.148 2°47.985 25.42227 4.64596 32.786464 -0.74754
2004-08-25 12:39:09 51°19.034 2°48.283 25.41135 4.646171 32.786013 -0.781249
2004-08-25 12:40:09 51°18.92 2°48.581 25.380834 4.646698 32.787002 -0.781249
2004-08-25 12:41:09 51°18.805 2°48.875 25.393748 4.646909 32.787609 -0.814958
2004-08-25 12:42:09 51°18.685 2°49.164 25.451906 4.647225 32.78905 -0.781249
2004-08-25 12:43:09 51°18.574 2°49.458 25.444592 4.647647 32.790265 -0.781249
2004-08-25 12:44:09 51°18.458 2°49.757 25.417992 4.647964 32.789058 -0.781249
2004-08-25 12:45:09 51°18.344 2°50.058 25.418555 4.648386 32.791332 -0.781249
2004-08-25 12:46:09 51°18.226 2°50.356 25.453293 4.648597 32.79088 -0.781249
2004-08-25 12:47:10 51°18.107 2°50.661 25.476731 4.648808 32.792017 -0.781249
2004-08-25 12:48:09 51°17.994 2°50.957 25.483779 4.649124 32.791869 -0.781249
2004-08-25 12:49:09 51°17.879 2°51.258 25.467319 4.649546 32.793084 -0.848668
2004-08-25 12:50:10 51°17.762 2°51.562 25.456744 4.649862 32.792936 -0.814958
2004-08-25 12:51:10 51°17.614 2°51.825 25.464094 4.650179 32.793847 -0.781249
2004-08-25 12:52:09 51°17.46 2°52.077 25.396413 4.650495 32.79317 -0.781249
2004-08-25 12:53:09 51°17.273 2°52.275 25.483067 4.650812 32.79461 -0.781249
2004-08-25 12:54:09 51°17.088 2°52.479 25.468107 4.651128 32.795521 -0.814958
2004-08-25 12:55:09 51°16.955 2°52.605 25.473656 4.651339 32.796128 -0.814958
2004-08-25 12:56:09 51°16.845 2°52.646 25.496075 4.651445 32.794844 -0.781249
2004-08-25 12:57:09 51°16.748 2°52.671 25.525906 4.651445 32.793786 -0.781249
2004-08-25 12:58:08 51°16.657 2°52.688 25.505857 4.651867 32.794471 -0.781249
2004-08-25 12:59:13 51°16.556 2°52.715 25.529203 4.652078 32.795078 -0.781249
2004-08-25 13:00:13 51°16.464 2°52.749 25.51339 4.652711 32.797429 -0.814958
2004-08-25 13:01:13 51°16.373 2°52.786 25.531638 4.652605 32.796067 -0.781249
2004-08-25 13:02:13 51°16.282 2°52.818 25.513877 4.653554 32.800386 -0.781249
2004-08-25 13:03:13 51°16.191 2°52.853 25.534598 4.653449 32.798495 -0.781249
2004-08-25 13:04:13 51°16.099 2°52.887 25.541903 4.65366 32.798574 -0.781249
2004-08-25 13:05:13 51°16.007 2°52.92 25.57722 4.653976 32.800542 -0.814958
2004-08-25 13:06:13 51°15.915 2°52.955 25.559058 4.654293 32.800924 -0.814958
2004-08-25 13:07:13 51°15.824 2°52.993 25.560743 4.654504 32.799944 -0.781249
2004-08-25 13:08:13 51°15.743 2°53.03 25.544151 4.655031 32.802519 -0.781249
2004-08-25 13:09:15 51°15.674 2°53.053 25.56153 4.655031 32.801461 -0.781249
2004-08-25 13:10:15 51°15.618 2°53.081 25.565687 4.655031 32.799875 -0.814958
2004-08-25 13:11:15 51°15.566 2°53.114 25.582162 4.655348 32.801314 -0.814958
2004-08-25 13:12:14 51°15.516 2°53.148 25.599158 4.655348 32.799727 -0.781249
2004-08-25 13:13:15 51°15.465 2°53.182 25.579354 4.65577 32.800413 -0.781249
2004-08-25 13:14:14 51°15.415 2°53.213 25.590323 4.656402 32.803291 -0.781249
2004-08-25 13:15:13 51°15.365 2°53.241 25.624045 4.656508 32.802537 -0.781249
2004-08-25 13:16:15 51°15.311 2°53.269 25.617609 4.65693 32.802693 -0.781249
2004-08-25 13:17:15 51°15.262 2°53.302 25.61454 4.657563 32.803985 -0.781249
2004-08-25 13:18:15 51°15.215 2°53.347 25.641817 4.657352 32.800735 -0.781249
2004-08-25 13:19:21 51°15.165 2°53.402 25.597286 4.658407 32.805355 -0.781249
2004-08-25 13:20:17 51°15.121 2°53.445 25.631004 4.658512 32.803544 -0.814958
2004-08-25 13:21:20 51°15.07 2°53.492 25.640021 4.658618 32.802263 -0.781249
2004-08-25 13:22:25 51°15.021 2°53.543 25.634222 4.65925 32.803554 -0.781249
2004-08-25 13:23:25 51°14.954 2°53.651 25.674879 4.659883 32.80379 -0.781249
2004-08-25 13:24:25 51°14.852 2°53.891 25.62034 4.660411 32.805835 -0.781249
2004-08-25 13:25:25 51°14.743 2°54.148 25.648513 4.660833 32.805992 -0.814958
2004-08-25 13:26:30 51°14.626 2°54.43 25.654909 4.661466 32.808868 -0.781249
2004-08-25 13:27:30 51°14.519 2°54.688 25.671214 4.661677 32.807362 -0.781249
2004-08-25 13:28:30 51°14.409 2°54.95 25.691405 4.662204 32.808878 -0.814958